createdAt,value
2022-08-26T00:03:52.655Z,1018.0
2022-08-26T00:08:52.332Z,1018.1
2022-08-26T00:13:52.324Z,1018.0
2022-08-26T00:18:52.587Z,1017.9
2022-08-26T00:23:52.349Z,1017.9
2022-08-26T00:28:52.215Z,1017.9
2022-08-26T00:33:52.239Z,1018.0
2022-08-26T00:38:52.293Z,1017.9
2022-08-26T00:43:52.211Z,1017.9
2022-08-26T00:48:52.423Z,1017.9
2022-08-26T00:53:52.244Z,1017.9
2022-08-26T00:58:52.237Z,1017.9
2022-08-26T01:03:52.410Z,1017.9
2022-08-26T01:08:52.203Z,1018.0
2022-08-26T01:13:52.217Z,1018.0
2022-08-26T01:18:52.336Z,1018.0
2022-08-26T01:23:52.199Z,1018.1
2022-08-26T01:28:52.134Z,1018.0
2022-08-26T01:33:52.610Z,1018.0
2022-08-26T01:39:02.416Z,1018.1
2022-08-26T01:43:52.028Z,1018.0
2022-08-26T01:48:52.347Z,1018.0
2022-08-26T01:53:52.305Z,1018.0
2022-08-26T01:58:52.106Z,1018.0
2022-08-26T02:03:52.172Z,1017.9
2022-08-26T02:08:52.179Z,1017.9
2022-08-26T02:13:52.112Z,1017.8
2022-08-26T02:18:52.250Z,1017.8
2022-08-26T02:23:52.178Z,1017.8
2022-08-26T02:28:52.047Z,1017.7
2022-08-26T02:33:51.973Z,1017.7
2022-08-26T02:38:52.190Z,1017.7
2022-08-26T02:43:52.112Z,1017.8
2022-08-26T02:48:52.313Z,1017.7
2022-08-26T02:53:51.995Z,1017.7
2022-08-26T02:58:52.590Z,1017.6
2022-08-26T03:03:52.155Z,1017.6
2022-08-26T03:08:52.039Z,1017.6
2022-08-26T03:13:52.096Z,1017.6
2022-08-26T03:18:52.596Z,1017.6
2022-08-26T03:23:52.086Z,1017.6
2022-08-26T03:28:51.922Z,1017.6
2022-08-26T03:33:53.361Z,1017.6
2022-08-26T03:38:52.038Z,1017.6
2022-08-26T03:43:51.960Z,1017.6
2022-08-26T03:48:52.392Z,1017.6
2022-08-26T03:53:52.002Z,1017.5
2022-08-26T03:58:51.918Z,1017.6
2022-08-26T04:03:52.185Z,1017.5
2022-08-26T04:08:51.843Z,1017.4
2022-08-26T04:13:51.908Z,1017.4
2022-08-26T04:18:52.165Z,1017.4
2022-08-26T04:23:51.922Z,1017.4
2022-08-26T04:28:52.259Z,1017.4
2022-08-26T04:33:52.034Z,1017.4
2022-08-26T04:38:51.852Z,1017.4
2022-08-26T04:43:51.799Z,1017.4
2022-08-26T04:48:52.015Z,1017.3
2022-08-26T04:53:51.791Z,1017.3
2022-08-26T04:58:51.806Z,1017.3
2022-08-26T05:03:51.966Z,1017.3
2022-08-26T05:08:51.716Z,1017.4
2022-08-26T05:13:51.762Z,1017.4
2022-08-26T05:18:51.827Z,1017.4
2022-08-26T05:23:51.730Z,1017.4
2022-08-26T05:28:51.750Z,1017.3
2022-08-26T05:33:51.850Z,1017.5
2022-08-26T05:38:51.700Z,1017.4
2022-08-26T05:43:51.770Z,1017.3
2022-08-26T05:48:51.778Z,1017.3
2022-08-26T05:53:54.371Z,1017.2
2022-08-26T05:58:51.809Z,1017.4
2022-08-26T06:03:51.689Z,1017.3
2022-08-26T06:08:51.693Z,1017.2
2022-08-26T06:13:51.666Z,1017.3
2022-08-26T06:18:51.625Z,1017.3
2022-08-26T06:23:51.782Z,1017.3
2022-08-26T06:28:51.667Z,1017.2
2022-08-26T06:33:51.611Z,1017.2
2022-08-26T06:38:51.556Z,1017.3
2022-08-26T06:43:51.625Z,1017.3
2022-08-26T06:48:51.575Z,1017.3
2022-08-26T06:54:02.135Z,1017.3
2022-08-26T06:59:12.260Z,1017.3
2022-08-26T07:04:10.358Z,1017.4
2022-08-26T07:08:51.617Z,1017.4
2022-08-26T07:13:51.678Z,1017.4
2022-08-26T07:18:51.600Z,1017.2
2022-08-26T07:24:01.196Z,1017.3
2022-08-26T07:28:51.540Z,1017.3
2022-08-26T07:33:51.653Z,1017.2
2022-08-26T07:38:51.700Z,1017.3
2022-08-26T07:43:51.644Z,1017.2
2022-08-26T07:48:51.597Z,1017.2
2022-08-26T07:53:52.329Z,1017.3
2022-08-26T07:58:52.195Z,1017.3
2022-08-26T08:03:51.878Z,1017.3
2022-08-26T08:08:51.823Z,1017.2
2022-08-26T08:13:55.954Z,1017.4
2022-08-26T08:18:51.538Z,1017.3
2022-08-26T08:23:51.808Z,1017.3
2022-08-26T08:28:51.550Z,1017.4
2022-08-26T08:33:51.550Z,1017.3
2022-08-26T08:38:51.625Z,1017.3
2022-08-26T08:43:51.504Z,1017.3
2022-08-26T08:48:51.593Z,1017.3
2022-08-26T08:53:51.694Z,1017.2
2022-08-26T08:58:51.530Z,1017.2
2022-08-26T09:03:51.521Z,1017.1
2022-08-26T09:08:51.707Z,1017.1
2022-08-26T09:13:51.570Z,1017.0
2022-08-26T09:18:51.473Z,1017.1
2022-08-26T09:23:51.710Z,1017.0
2022-08-26T09:28:51.399Z,1017.0
2022-08-26T09:33:51.464Z,1016.9
2022-08-26T09:38:51.496Z,1016.9
2022-08-26T09:43:51.766Z,1016.8
2022-08-26T09:53:51.438Z,1016.7
2022-08-26T09:58:51.307Z,1016.8
2022-08-26T10:03:51.769Z,1016.8
2022-08-26T10:08:51.348Z,1016.8
2022-08-26T10:13:51.439Z,1016.7
2022-08-26T10:18:53.125Z,1016.8
2022-08-26T10:23:51.370Z,1016.7
2022-08-26T10:28:51.375Z,1016.7
2022-08-26T10:33:52.559Z,1016.7
2022-08-26T10:38:51.300Z,1016.7
2022-08-26T10:43:51.348Z,1016.6
2022-08-26T10:48:52.025Z,1016.6
2022-08-26T10:53:51.655Z,1016.5
2022-08-26T10:58:51.305Z,1016.6
2022-08-26T11:03:52.438Z,1016.5
2022-08-26T11:08:51.246Z,1016.6
2022-08-26T11:13:51.345Z,1016.6
2022-08-26T11:18:51.480Z,1016.5
2022-08-26T11:23:52.941Z,1016.4
2022-08-26T11:28:51.244Z,1016.4
2022-08-26T11:33:51.257Z,1016.3
2022-08-26T11:38:51.248Z,1016.3
2022-08-26T11:43:51.346Z,1016.2
2022-08-26T11:48:51.268Z,1016.2
2022-08-26T11:53:51.297Z,1016.2
2022-08-26T11:58:51.362Z,1016.0
2022-08-26T12:03:52.442Z,1015.9
2022-08-26T12:08:51.346Z,1016.0
2022-08-26T12:13:51.241Z,1015.9
2022-08-26T12:18:51.236Z,1015.9
2022-08-26T12:23:51.186Z,1015.8
2022-08-26T12:28:51.414Z,1015.8
2022-08-26T12:33:51.324Z,1015.8
2022-08-26T12:38:51.230Z,1015.7
2022-08-26T12:43:51.391Z,1015.7
2022-08-26T12:48:51.270Z,1015.6
2022-08-26T12:53:51.205Z,1015.7
2022-08-26T12:58:51.349Z,1015.6
2022-08-26T13:03:51.204Z,1015.6
2022-08-26T13:08:51.314Z,1015.6
2022-08-26T13:13:53.514Z,1015.5
2022-08-26T13:18:51.286Z,1015.4
2022-08-26T13:23:51.258Z,1015.4
2022-08-26T13:29:01.715Z,1015.2
2022-08-26T13:33:51.294Z,1015.2
2022-08-26T13:38:51.829Z,1015.3
2022-08-26T13:43:51.934Z,1015.3
2022-08-26T13:48:51.268Z,1015.3
2022-08-26T13:53:51.441Z,1015.3
2022-08-26T13:58:51.373Z,1015.2
2022-08-26T14:03:51.296Z,1015.2
2022-08-26T14:08:51.180Z,1015.2
2022-08-26T14:13:51.369Z,1015.1
2022-08-26T14:18:51.159Z,1015.1
2022-08-26T14:23:51.245Z,1015.1
2022-08-26T14:28:51.301Z,1015.1
2022-08-26T14:33:51.119Z,1015.0
2022-08-26T14:38:51.156Z,1015.0
2022-08-26T14:43:51.562Z,1015.0
2022-08-26T14:48:51.134Z,1014.9
2022-08-26T14:53:51.171Z,1015.0
2022-08-26T14:58:51.347Z,1014.9
2022-08-26T15:03:51.120Z,1015.0
2022-08-26T15:08:51.060Z,1014.9
2022-08-26T15:13:51.136Z,1014.9
2022-08-26T15:18:51.369Z,1014.9
2022-08-26T15:23:51.217Z,1014.9
2022-08-26T15:28:50.987Z,1014.9
2022-08-26T15:33:51.271Z,1014.8
2022-08-26T15:38:51.089Z,1014.9
2022-08-26T15:43:51.136Z,1014.8
2022-08-26T15:48:51.215Z,1014.8
2022-08-26T15:53:51.083Z,1014.9
2022-08-26T15:58:51.057Z,1014.9
2022-08-26T16:03:51.339Z,1014.8
2022-08-26T16:08:51.076Z,1014.8
2022-08-26T16:13:51.109Z,1014.8
2022-08-26T16:18:50.932Z,1014.8
2022-08-26T16:23:51.070Z,1014.8
2022-08-26T16:28:51.095Z,1014.7
2022-08-26T16:33:51.194Z,1014.6
2022-08-26T16:38:50.948Z,1014.6
2022-08-26T16:43:50.966Z,1014.5
2022-08-26T16:48:51.017Z,1014.5
2022-08-26T16:53:50.913Z,1014.5
2022-08-26T16:58:50.995Z,1014.5
2022-08-26T17:03:51.041Z,1014.4
2022-08-26T17:08:50.943Z,1014.4
2022-08-26T17:13:50.871Z,1014.4
2022-08-26T17:18:51.087Z,1014.4
2022-08-26T17:23:51.770Z,1014.3
2022-08-26T17:28:50.905Z,1014.3
2022-08-26T17:33:50.926Z,1014.2
2022-08-26T17:38:51.030Z,1014.3
2022-08-26T17:43:50.973Z,1014.3
2022-08-26T17:48:51.104Z,1014.3
2022-08-26T17:53:50.825Z,1014.2
2022-08-26T17:58:51.797Z,1014.2
2022-08-26T18:03:51.175Z,1014.3
2022-08-26T18:08:50.814Z,1014.4
2022-08-26T18:13:51.171Z,1014.5
2022-08-26T18:18:51.021Z,1014.4
2022-08-26T18:23:51.170Z,1014.3
2022-08-26T18:28:50.941Z,1014.4
2022-08-26T18:33:50.911Z,1014.3
2022-08-26T18:38:50.891Z,1014.4
2022-08-26T18:43:51.772Z,1014.4
2022-08-26T18:48:51.231Z,1014.4
2022-08-26T18:53:50.830Z,1014.4
2022-08-26T18:58:51.997Z,1014.4
2022-08-26T19:03:51.004Z,1014.5
2022-08-26T19:08:50.731Z,1014.4
2022-08-26T19:13:50.778Z,1014.4
2022-08-26T19:18:50.838Z,1014.4
2022-08-26T19:23:50.873Z,1014.4
2022-08-26T19:28:51.211Z,1014.4
2022-08-26T19:33:50.905Z,1014.4
2022-08-26T19:38:50.887Z,1014.4
2022-08-26T19:43:51.921Z,1014.5
2022-08-26T19:48:52.850Z,1014.5
2022-08-26T19:53:50.765Z,1014.6
2022-08-26T19:58:50.914Z,1014.7
2022-08-26T20:03:50.900Z,1014.7
2022-08-26T20:08:50.821Z,1014.8
2022-08-26T20:13:50.936Z,1014.8
2022-08-26T20:18:50.716Z,1014.9
2022-08-26T20:23:50.704Z,1014.8
2022-08-26T20:28:51.023Z,1014.8
2022-08-26T20:33:50.741Z,1014.8
2022-08-26T20:38:50.688Z,1014.8
2022-08-26T20:43:50.847Z,1014.9
2022-08-26T20:48:50.573Z,1014.9
2022-08-26T20:53:50.621Z,1015.0
2022-08-26T20:58:50.880Z,1015.0
2022-08-26T21:03:50.751Z,1014.9
2022-08-26T21:08:50.617Z,1014.9
2022-08-26T21:14:04.347Z,1015.0
2022-08-26T21:18:50.653Z,1014.9
2022-08-26T21:23:50.665Z,1014.9
2022-08-26T21:28:50.803Z,1014.9
2022-08-26T21:33:50.637Z,1014.9
2022-08-26T21:38:50.597Z,1014.9
2022-08-26T21:43:50.735Z,1014.8
2022-08-26T21:48:51.139Z,1014.8
2022-08-26T21:53:50.525Z,1014.8
2022-08-26T21:58:52.330Z,1014.8
2022-08-26T22:03:50.491Z,1014.7
2022-08-26T22:08:50.459Z,1014.7
2022-08-26T22:13:50.670Z,1014.8
2022-08-26T22:18:50.485Z,1014.8
2022-08-26T22:23:50.461Z,1014.9
2022-08-26T22:28:50.762Z,1014.8
2022-08-26T22:33:50.388Z,1014.8
2022-08-26T22:38:50.619Z,1014.8
2022-08-26T22:43:50.746Z,1014.6
2022-08-26T22:48:51.949Z,1014.6
2022-08-26T22:53:50.524Z,1014.5
2022-08-26T22:58:50.596Z,1014.4
2022-08-26T23:03:50.568Z,1014.3
2022-08-26T23:08:50.449Z,1014.2
2022-08-26T23:13:50.709Z,1014.3
2022-08-26T23:18:50.367Z,1014.3
2022-08-26T23:23:50.415Z,1014.3
2022-08-26T23:28:50.619Z,1014.3
2022-08-26T23:33:50.410Z,1014.2
2022-08-26T23:38:52.618Z,1014.1
2022-08-26T23:43:50.507Z,1014.2
2022-08-26T23:48:50.449Z,1014.2
2022-08-26T23:53:50.529Z,1014.2
2022-08-26T23:58:50.262Z,1014.1
